createdAt,value
2017-12-04T00:01:26.018Z,99558.70
2017-12-04T00:03:53.361Z,99569.82
2017-12-04T00:06:19.820Z,99571.46
2017-12-04T00:08:46.273Z,99565.72
2017-12-04T00:11:12.791Z,99570.62
2017-12-04T00:13:39.225Z,99580.52
2017-12-04T00:16:05.662Z,99557.39
2017-12-04T00:18:31.992Z,99549.59
2017-12-04T00:20:59.331Z,99552.62
2017-12-04T00:23:25.770Z,99555.11
2017-12-04T00:25:52.116Z,99540.45
2017-12-04T00:28:18.448Z,99563.80
2017-12-04T00:30:44.883Z,99577.61
2017-12-04T00:33:11.319Z,99563.55
2017-12-04T00:35:37.648Z,99566.13
2017-12-04T00:38:05.064Z,99579.75
2017-12-04T00:40:31.468Z,99589.05
2017-12-04T00:42:57.832Z,99591.95
2017-12-04T00:45:24.309Z,99596.08
2017-12-04T00:47:50.744Z,99606.16
2017-12-04T00:50:17.178Z,99606.16
2017-12-04T00:52:43.562Z,99611.02
2017-12-04T00:55:10.765Z,99611.84
2017-12-04T00:57:37.199Z,99607.55
2017-12-04T01:00:03.634Z,99591.76
2017-12-04T01:02:30.003Z,99586.88
2017-12-04T01:04:56.338Z,99599.19
2017-12-04T01:07:22.804Z,99592.22
2017-12-04T01:09:49.245Z,99601.44
2017-12-04T01:12:16.423Z,99587.30
2017-12-04T01:14:42.856Z,99592.86
2017-12-04T01:17:09.295Z,99589.30
2017-12-04T01:19:35.724Z,99598.69
2017-12-04T01:22:02.160Z,99588.39
2017-12-04T01:24:28.696Z,99597.53
2017-12-04T01:26:55.131Z,99578.66
2017-12-04T01:29:22.283Z,99583.75
2017-12-04T01:31:48.721Z,99592.07
2017-12-04T01:34:15.174Z,99589.71
2017-12-04T01:36:41.586Z,99588.96
2017-12-04T01:39:08.021Z,99592.58
2017-12-04T01:41:34.455Z,99590.48
2017-12-04T01:44:00.825Z,99584.97
2017-12-04T01:46:28.043Z,99585.97
2017-12-04T01:48:54.477Z,99586.38
2017-12-04T01:51:20.912Z,99586.14
2017-12-04T01:53:47.348Z,99581.33
2017-12-04T01:56:13.781Z,99585.04
2017-12-04T01:58:40.146Z,99585.68
2017-12-04T02:01:06.503Z,99579.94
2017-12-04T02:03:33.798Z,99581.37
2017-12-04T02:06:00.133Z,99577.66
2017-12-04T02:08:26.568Z,99583.23
2017-12-04T02:10:53.002Z,99588.96
2017-12-04T02:13:19.370Z,99592.53
2017-12-04T02:15:45.682Z,99600.28
2017-12-04T02:18:12.001Z,99605.05
2017-12-04T02:20:39.286Z,99611.28
2017-12-04T02:23:05.687Z,99608.66
2017-12-04T02:25:31.994Z,99606.31
2017-12-04T02:27:58.456Z,99605.86
2017-12-04T02:30:24.889Z,99598.19
2017-12-04T02:32:51.323Z,99602.82
2017-12-04T02:35:17.760Z,99593.41
2017-12-04T02:37:44.813Z,99595.84
2017-12-04T02:40:11.241Z,99580.20
2017-12-04T02:42:37.676Z,99591.37
2017-12-04T02:45:04.111Z,99585.40
2017-12-04T02:47:30.564Z,99585.46
2017-12-04T02:49:56.979Z,99585.05
2017-12-04T02:52:23.358Z,99602.42
2017-12-04T02:54:50.566Z,99587.79
2017-12-04T02:57:16.934Z,99586.53
2017-12-04T02:59:43.334Z,99587.66
2017-12-04T03:02:09.665Z,99581.26
2017-12-04T03:04:36.099Z,99586.69
2017-12-04T03:07:02.534Z,99598.16
2017-12-04T03:09:28.968Z,99600.72
2017-12-04T03:11:56.120Z,99600.83
2017-12-04T03:14:22.556Z,99589.25
2017-12-04T03:16:48.985Z,99581.41
2017-12-04T03:19:15.353Z,99583.67
2017-12-04T03:21:41.790Z,99576.73
2017-12-04T03:24:08.191Z,99573.81
2017-12-04T03:26:34.625Z,99580.52
2017-12-04T03:29:01.868Z,99594.09
2017-12-04T03:31:28.211Z,99593.14
2017-12-04T03:33:54.645Z,99598.39
2017-12-04T03:36:21.081Z,99600.34
2017-12-04T03:38:47.515Z,99599.20
2017-12-04T03:41:13.882Z,99603.85
2017-12-04T03:43:40.282Z,99610.40
2017-12-04T03:46:07.513Z,99610.55
2017-12-04T03:48:33.871Z,99603.66
2017-12-04T03:51:00.237Z,99602.47
2017-12-04T03:53:26.636Z,99595.27
2017-12-04T03:55:53.069Z,99603.02
2017-12-04T03:58:19.506Z,99608.02
2017-12-04T04:00:45.939Z,99608.75
2017-12-04T04:03:12.990Z,99608.58
2017-12-04T04:05:39.353Z,99610.21
2017-12-04T04:08:05.767Z,99605.17
2017-12-04T04:10:32.189Z,99609.41
2017-12-04T04:12:58.643Z,99611.90
2017-12-04T04:15:25.057Z,99616.92
2017-12-04T04:17:51.588Z,99617.84
2017-12-04T04:20:18.644Z,99618.51
2017-12-04T04:22:45.185Z,99616.96
2017-12-04T04:25:11.616Z,99600.14
2017-12-04T04:27:38.050Z,99616.47
2017-12-04T04:30:04.486Z,99618.11
2017-12-04T04:32:31.022Z,99611.84
2017-12-04T04:34:57.369Z,99620.39
2017-12-04T04:37:24.608Z,99616.31
2017-12-04T04:39:50.938Z,99616.34
2017-12-04T04:42:17.377Z,99624.10
2017-12-04T04:44:43.812Z,99619.60
2017-12-04T04:47:10.178Z,99626.92
2017-12-04T04:49:36.595Z,99628.53
2017-12-04T04:52:03.019Z,99628.47
2017-12-04T04:54:30.265Z,99634.91
2017-12-04T04:56:56.802Z,99637.63
2017-12-04T04:59:23.237Z,99644.23
2017-12-04T05:01:49.671Z,99639.77
2017-12-04T05:04:16.105Z,99636.68
2017-12-04T05:06:42.541Z,99643.33
2017-12-04T05:09:09.113Z,99611.48
2017-12-04T05:11:36.126Z,99648.17
2017-12-04T05:14:02.561Z,99660.77
2017-12-04T05:16:29.000Z,99653.06
2017-12-04T05:18:55.329Z,99655.29
2017-12-04T05:21:21.762Z,99656.13
2017-12-04T05:23:48.197Z,99664.04
2017-12-04T05:26:14.631Z,99661.80
2017-12-04T05:28:41.784Z,99660.96
2017-12-04T05:31:08.218Z,99665.72
2017-12-04T05:33:34.653Z,99663.63
2017-12-04T05:36:00.984Z,99673.47
2017-12-04T05:38:27.317Z,99668.66
2017-12-04T05:40:53.737Z,99668.85
2017-12-04T05:43:20.117Z,99673.91
2017-12-04T05:45:47.378Z,99672.12
2017-12-04T05:48:13.773Z,99674.24
2017-12-04T05:50:40.206Z,99673.91
2017-12-04T05:53:06.744Z,99674.30
2017-12-04T05:55:33.178Z,99676.20
2017-12-04T05:57:59.613Z,99647.00
2017-12-04T06:00:26.049Z,99676.34
2017-12-04T06:02:53.100Z,99676.56
2017-12-04T06:05:19.841Z,99678.09
2017-12-04T06:07:46.216Z,99677.67
2017-12-04T06:10:12.605Z,99678.42
2017-12-04T06:12:39.247Z,99676.97
2017-12-04T06:15:06.439Z,99682.44
2017-12-04T06:17:32.851Z,99683.67
2017-12-04T06:19:59.267Z,99685.92
2017-12-04T06:22:25.680Z,99688.79
2017-12-04T06:24:52.530Z,99695.52
2017-12-04T06:27:19.842Z,99701.47
2017-12-04T06:29:46.302Z,99697.98
2017-12-04T06:32:12.744Z,99705.19
2017-12-04T06:34:39.205Z,99693.99
2017-12-04T06:37:05.660Z,99701.22
2017-12-04T06:39:32.073Z,99704.48
2017-12-04T06:41:58.510Z,99706.78
2017-12-04T06:44:25.028Z,99704.29
2017-12-04T06:46:51.481Z,99707.29
2017-12-04T06:49:17.916Z,99702.50
2017-12-04T06:51:44.757Z,99703.34
2017-12-04T06:54:11.090Z,99703.81
2017-12-04T06:56:37.525Z,99706.70
2017-12-04T06:59:03.901Z,99709.33
2017-12-04T07:01:31.202Z,99713.13
2017-12-04T07:03:57.544Z,99706.14
2017-12-04T07:06:24.092Z,99710.95
2017-12-04T07:08:50.516Z,99717.81
2017-12-04T07:11:16.952Z,99717.76
2017-12-04T07:13:44.205Z,99717.48
2017-12-04T07:16:10.727Z,99719.80
2017-12-04T07:18:37.178Z,99715.11
2017-12-04T07:21:03.611Z,99713.49
2017-12-04T07:23:29.947Z,99717.21
2017-12-04T07:25:56.481Z,99718.16
2017-12-04T07:28:22.853Z,99722.03
2017-12-04T07:30:49.555Z,99723.94
2017-12-04T07:33:15.994Z,99724.56
2017-12-04T07:35:42.536Z,99717.31
2017-12-04T07:38:08.906Z,99712.13
2017-12-04T07:40:35.294Z,99712.63
2017-12-04T07:43:01.712Z,99719.92
2017-12-04T07:45:28.130Z,99720.97
2017-12-04T07:47:54.571Z,99723.38
2017-12-04T07:50:21.134Z,99731.12
2017-12-04T07:52:47.569Z,99733.08
2017-12-04T07:55:14.108Z,99732.80
2017-12-04T07:57:40.438Z,99732.30
2017-12-04T08:00:06.872Z,99732.77
2017-12-04T08:02:33.307Z,99738.64
2017-12-04T08:04:59.741Z,99733.56
2017-12-04T08:07:26.074Z,99732.27
2017-12-04T08:09:52.508Z,99729.16
2017-12-04T08:12:18.943Z,99732.61
2017-12-04T08:14:45.377Z,99727.35
2017-12-04T08:17:11.973Z,99734.05
2017-12-04T08:19:38.451Z,99737.41
2017-12-04T08:22:04.886Z,99737.19
2017-12-04T08:24:31.425Z,99737.38
2017-12-04T08:26:57.860Z,99738.09
2017-12-04T08:29:24.230Z,99737.20
2017-12-04T08:31:50.932Z,99738.20
2017-12-04T08:34:17.374Z,99737.62
2017-12-04T08:36:43.903Z,99741.20
2017-12-04T08:39:10.338Z,99739.34
2017-12-04T08:41:37.172Z,99733.15
2017-12-04T08:44:03.619Z,99722.95
2017-12-04T08:46:30.052Z,99717.69
2017-12-04T08:48:56.573Z,99704.63
2017-12-04T08:51:23.019Z,99712.37
2017-12-04T08:53:49.394Z,99713.90
2017-12-04T08:56:15.994Z,99702.35
2017-12-04T08:58:42.304Z,99702.30
2017-12-04T09:01:08.761Z,99703.84
2017-12-04T09:03:35.196Z,99709.39
2017-12-04T09:06:01.718Z,99704.80
2017-12-04T09:08:28.118Z,99692.31
2017-12-04T09:10:54.576Z,99697.81
2017-12-04T09:13:21.119Z,99689.19
2017-12-04T09:15:47.676Z,99685.72
2017-12-04T09:18:14.111Z,99669.79
2017-12-04T09:20:40.546Z,99681.13
2017-12-04T09:23:07.021Z,99694.70
2017-12-04T09:25:33.458Z,99702.02
2017-12-04T09:27:59.952Z,99702.14
2017-12-04T09:30:26.386Z,99701.20
2017-12-04T09:32:52.759Z,99694.78
2017-12-04T09:35:19.223Z,99703.60
2017-12-04T09:37:45.665Z,99688.58
2017-12-04T09:40:12.125Z,99686.27
2017-12-04T09:42:38.459Z,99683.20
2017-12-04T09:45:04.994Z,99677.11
2017-12-04T09:47:31.366Z,99684.20
2017-12-04T09:49:57.732Z,99691.61
2017-12-04T09:52:24.605Z,99700.55
2017-12-04T09:54:51.040Z,99703.80
2017-12-04T09:57:17.409Z,99696.55
2017-12-04T09:59:43.812Z,99703.58
2017-12-04T10:02:10.246Z,99701.80
2017-12-04T10:04:37.085Z,99689.69
2017-12-04T10:07:03.929Z,99700.69
2017-12-04T10:09:30.367Z,99695.01
2017-12-04T10:11:57.208Z,99686.97
2017-12-04T10:14:23.748Z,99673.17
2017-12-04T10:16:50.592Z,99676.59
2017-12-04T10:19:17.024Z,99677.28
2017-12-04T10:21:43.405Z,99669.34
2017-12-04T10:24:09.722Z,99669.87
2017-12-04T10:26:36.225Z,99659.77
2017-12-04T10:29:02.661Z,99647.13
2017-12-04T10:31:29.098Z,99655.20
2017-12-04T10:33:55.531Z,99655.00
2017-12-04T10:36:22.066Z,99659.13
2017-12-04T10:38:48.854Z,99652.94
2017-12-04T10:41:15.335Z,99643.44
2017-12-04T10:43:41.883Z,99649.41
2017-12-04T10:46:08.317Z,99659.22
2017-12-04T10:48:34.752Z,99659.43
2017-12-04T10:51:01.186Z,99657.76
2017-12-04T10:53:27.620Z,99640.13
2017-12-04T10:55:54.161Z,99626.03
2017-12-04T10:58:20.595Z,99648.73
2017-12-04T11:00:47.234Z,99658.29
2017-12-04T11:03:13.667Z,99658.69
2017-12-04T11:05:40.101Z,99647.88
2017-12-04T11:08:06.535Z,99630.50
2017-12-04T11:10:32.969Z,99641.61
2017-12-04T11:12:59.342Z,99628.43
2017-12-04T11:15:25.740Z,99627.83
2017-12-04T11:17:52.109Z,99641.02
2017-12-04T11:20:19.124Z,99669.84
2017-12-04T11:22:45.553Z,99676.38
2017-12-04T11:25:11.988Z,99657.94
2017-12-04T11:27:38.532Z,99658.44
2017-12-04T11:30:04.914Z,99651.98
2017-12-04T11:32:31.370Z,99649.61
2017-12-04T11:34:57.930Z,99649.83
2017-12-04T11:37:24.364Z,99630.53
2017-12-04T11:39:50.800Z,99637.03
2017-12-04T11:42:17.235Z,99628.19
2017-12-04T11:44:43.975Z,99629.64
2017-12-04T11:47:10.412Z,99635.84
2017-12-04T11:49:36.866Z,99628.05
2017-12-04T11:52:03.286Z,99633.20
2017-12-04T11:54:29.661Z,99627.48
2017-12-04T11:56:56.167Z,99622.25
2017-12-04T11:59:22.778Z,99623.71
2017-12-04T12:01:49.231Z,99626.97
2017-12-04T12:04:16.478Z,99610.14
2017-12-04T12:06:43.008Z,99643.45
2017-12-04T12:09:09.381Z,99633.13
2017-12-04T12:11:35.780Z,99625.30
2017-12-04T12:14:02.112Z,99625.05
2017-12-04T12:16:28.855Z,99617.12
2017-12-04T12:18:55.801Z,99618.98
2017-12-04T12:21:22.632Z,99623.39
2017-12-04T12:23:49.081Z,99611.13
2017-12-04T12:26:15.618Z,99610.12
2017-12-04T12:28:42.052Z,99608.07
2017-12-04T12:31:08.692Z,99610.51
2017-12-04T12:33:35.080Z,99611.61
2017-12-04T12:36:01.561Z,99608.89
2017-12-04T12:38:28.404Z,99617.39
2017-12-04T12:40:54.837Z,99611.25
2017-12-04T12:43:21.273Z,99615.25
2017-12-04T12:45:48.017Z,99613.23
2017-12-04T12:48:14.689Z,99608.67
2017-12-04T12:50:41.088Z,99607.91
2017-12-04T12:53:07.587Z,99615.89
2017-12-04T12:55:34.265Z,99609.94
2017-12-04T12:58:00.701Z,99610.85
2017-12-04T13:00:27.346Z,99611.48
2017-12-04T13:02:54.191Z,99611.27
2017-12-04T13:05:20.724Z,99611.28
2017-12-04T13:07:47.159Z,99613.02
2017-12-04T13:10:14.071Z,99609.12
2017-12-04T13:12:40.537Z,99586.97
2017-12-04T13:15:07.011Z,99615.20
2017-12-04T13:17:34.123Z,99614.25
2017-12-04T13:20:01.169Z,99616.39
2017-12-04T13:22:28.016Z,99610.30
2017-12-04T13:24:54.509Z,99602.19
2017-12-04T13:27:20.987Z,99602.09
2017-12-04T13:29:47.386Z,99600.77
2017-12-04T13:32:14.472Z,99607.82
2017-12-04T13:34:40.868Z,99611.85
2017-12-04T13:37:07.312Z,99610.23
2017-12-04T13:39:34.288Z,99610.53
2017-12-04T13:42:00.794Z,99611.80
2017-12-04T13:44:27.260Z,99609.97
2017-12-04T13:46:53.800Z,99612.50
2017-12-04T13:49:20.434Z,99615.64
2017-12-04T13:51:46.916Z,99621.95
2017-12-04T13:54:13.410Z,99591.36
2017-12-04T13:56:40.047Z,99628.47
2017-12-04T13:59:06.481Z,99622.60
2017-12-04T14:01:32.915Z,99625.61
2017-12-04T14:03:59.862Z,99633.94
2017-12-04T14:06:26.537Z,99625.40
2017-12-04T14:08:52.936Z,99627.72
2017-12-04T14:11:19.372Z,99631.30
2017-12-04T14:13:46.131Z,99628.06
2017-12-04T14:16:12.649Z,99628.53
2017-12-04T14:18:39.083Z,99633.79
2017-12-04T14:21:05.518Z,99632.39
2017-12-04T14:23:31.957Z,99630.03
2017-12-04T14:25:58.490Z,99634.59
2017-12-04T14:28:24.925Z,99632.90
2017-12-04T14:30:51.565Z,99630.36
2017-12-04T14:33:17.998Z,99625.88
2017-12-04T14:35:44.518Z,99627.71
2017-12-04T14:38:11.380Z,99629.55
2017-12-04T14:40:37.814Z,99634.80
2017-12-04T14:43:04.249Z,99630.44
2017-12-04T14:50:34.099Z,99636.55
2017-12-04T14:53:00.739Z,99638.20
2017-12-04T14:55:27.299Z,99630.88
2017-12-04T14:57:53.710Z,99633.79
2017-12-04T15:00:20.043Z,99627.99
2017-12-04T15:02:46.927Z,99629.54
2017-12-04T15:05:13.359Z,99632.68
2017-12-04T15:07:39.690Z,99637.80
2017-12-04T15:10:06.479Z,99636.95
2017-12-04T15:12:32.922Z,99630.80
2017-12-04T15:14:59.367Z,99629.75
2017-12-04T15:17:26.206Z,99632.64
2017-12-04T15:19:52.645Z,99632.26
2017-12-04T15:22:19.080Z,99636.61
2017-12-04T15:24:45.807Z,99639.61
2017-12-04T15:27:12.258Z,99643.91
2017-12-04T15:29:38.736Z,99642.20
2017-12-04T15:32:05.127Z,99638.66
2017-12-04T15:34:32.095Z,99641.14
2017-12-04T15:36:58.694Z,99651.37
2017-12-04T15:39:25.148Z,99648.52
2017-12-04T15:41:51.582Z,99649.55
2017-12-04T15:44:18.018Z,99651.80
2017-12-04T15:46:44.455Z,99648.02
2017-12-04T15:49:10.786Z,99647.61
2017-12-04T15:51:37.154Z,99655.50
2017-12-04T15:54:03.654Z,99654.30
2017-12-04T15:56:29.962Z,99656.98
2017-12-04T15:58:56.419Z,99656.14
2017-12-04T16:01:22.854Z,99656.63
2017-12-04T16:03:49.325Z,99651.03
2017-12-04T16:06:15.781Z,99660.20
2017-12-04T16:08:42.114Z,99655.98
2017-12-04T16:11:08.582Z,99655.38
2017-12-04T16:13:35.028Z,99625.69
2017-12-04T16:16:01.358Z,99659.21
2017-12-04T16:18:27.896Z,99660.42
2017-12-04T16:20:54.330Z,99664.41
2017-12-04T16:23:20.764Z,99647.67
2017-12-04T16:25:47.199Z,99670.22
2017-12-04T16:28:13.531Z,99674.14
2017-12-04T16:30:39.965Z,99675.88
2017-12-04T16:33:06.386Z,99679.11
2017-12-04T16:35:32.851Z,99683.38
2017-12-04T16:37:59.242Z,99684.47
2017-12-04T16:40:25.709Z,99680.91
2017-12-04T16:42:52.035Z,99681.61
2017-12-04T16:45:18.471Z,99681.87
2017-12-04T16:47:44.857Z,99688.87
2017-12-04T16:50:12.057Z,99692.66
2017-12-04T16:52:38.471Z,99683.93
2017-12-04T16:55:04.824Z,99683.77
2017-12-04T16:57:31.259Z,99679.44
2017-12-04T16:59:57.795Z,99685.30
2017-12-04T17:02:24.166Z,99690.63
2017-12-04T17:04:50.566Z,99693.41
2017-12-04T17:07:17.796Z,99667.88
2017-12-04T17:09:44.238Z,99696.80
2017-12-04T17:12:10.685Z,99691.77
2017-12-04T17:14:37.057Z,99693.34
2017-12-04T17:17:03.394Z,99699.58
2017-12-04T17:19:29.777Z,99691.53
2017-12-04T17:21:56.219Z,99694.81
2017-12-04T17:24:23.373Z,99695.66
2017-12-04T17:26:49.807Z,99688.23
2017-12-04T17:29:16.137Z,99693.83
2017-12-04T17:31:42.468Z,99694.94
2017-12-04T17:34:08.886Z,99689.80
2017-12-04T17:36:35.339Z,99700.11
2017-12-04T17:39:01.778Z,99697.30
2017-12-04T17:41:28.924Z,99699.16
2017-12-04T17:43:55.360Z,99700.80
2017-12-04T17:46:21.794Z,99690.67
2017-12-04T17:48:48.210Z,99695.28
2017-12-04T17:51:14.653Z,99695.22
2017-12-04T17:53:41.097Z,99698.50
2017-12-04T17:56:07.531Z,99706.11
2017-12-04T17:58:34.580Z,99699.66
2017-12-04T18:01:00.951Z,99704.96
2017-12-04T18:03:27.469Z,99711.36
2017-12-04T18:05:53.886Z,99717.63
2017-12-04T18:08:20.340Z,99720.92
2017-12-04T18:10:46.754Z,99718.27
2017-12-04T18:13:13.208Z,99708.22
2017-12-04T18:15:40.340Z,99712.34
2017-12-04T18:18:06.774Z,99704.13
2017-12-04T18:20:33.209Z,99716.45
2017-12-04T18:22:59.662Z,99722.44
2017-12-04T18:25:26.080Z,99719.48
2017-12-04T18:27:52.412Z,99720.50
2017-12-04T18:30:18.742Z,99717.77
2017-12-04T18:32:45.936Z,99713.82
2017-12-04T18:35:12.431Z,99723.73
2017-12-04T18:37:38.763Z,99744.53
2017-12-04T18:40:05.199Z,99739.30
2017-12-04T18:42:31.631Z,99729.72
2017-12-04T18:44:58.068Z,99712.17
2017-12-04T18:47:24.493Z,99739.67
2017-12-04T18:49:51.756Z,99740.72
2017-12-04T18:52:18.192Z,99752.42
2017-12-04T18:54:44.625Z,99749.47
2017-12-04T18:57:10.993Z,99748.69
2017-12-04T18:59:37.326Z,99753.99
2017-12-04T19:02:03.694Z,99748.59
2017-12-04T19:04:30.058Z,99751.20
2017-12-04T19:06:57.346Z,99755.73
2017-12-04T19:09:23.745Z,99760.34
2017-12-04T19:11:50.179Z,99773.58
2017-12-04T19:14:16.614Z,99759.41
2017-12-04T19:16:43.048Z,99770.06
2017-12-04T19:19:09.482Z,99773.14
2017-12-04T19:21:35.919Z,99777.20
2017-12-04T19:24:03.047Z,99768.48
2017-12-04T19:26:29.489Z,99770.48
2017-12-04T19:28:55.938Z,99778.59
2017-12-04T19:31:22.375Z,99781.42
2017-12-04T19:33:48.790Z,99781.34
2017-12-04T19:36:15.140Z,99779.72
2017-12-04T19:38:41.573Z,99782.88
2017-12-04T19:41:08.726Z,99787.00
2017-12-04T19:43:35.168Z,99787.53
2017-12-04T19:46:01.595Z,99766.78
2017-12-04T19:48:27.926Z,99787.09
2017-12-04T19:50:54.361Z,99783.34
2017-12-04T19:53:20.693Z,99789.63
2017-12-04T19:55:47.128Z,99797.70
2017-12-04T19:58:14.279Z,99787.00
2017-12-04T20:00:40.818Z,99788.77
2017-12-04T20:03:07.250Z,99790.00
2017-12-04T20:05:33.618Z,99785.86
2017-12-04T20:07:59.950Z,99782.91
2017-12-04T20:10:26.454Z,99786.91
2017-12-04T20:12:52.887Z,99792.03
2017-12-04T20:15:20.038Z,99799.07
2017-12-04T20:17:46.477Z,99797.93
2017-12-04T20:20:12.842Z,99811.30
2017-12-04T20:22:39.241Z,99803.85
2017-12-04T20:25:05.676Z,99801.47
2017-12-04T20:27:32.009Z,99807.51
2017-12-04T20:29:58.376Z,99802.33
2017-12-04T20:32:25.696Z,99790.24
2017-12-04T20:34:52.030Z,99816.91
2017-12-04T20:37:18.463Z,99823.14
2017-12-04T20:39:44.900Z,99823.36
2017-12-04T20:42:11.314Z,99824.59
2017-12-04T20:44:37.662Z,99821.84
2017-12-04T20:47:03.997Z,99830.61
2017-12-04T20:49:31.454Z,99805.43
2017-12-04T20:51:57.888Z,99801.06
2017-12-04T20:54:24.331Z,99806.30
2017-12-04T20:56:50.758Z,99797.03
2017-12-04T20:59:17.125Z,99806.04
2017-12-04T21:01:43.500Z,99799.09
2017-12-04T21:04:09.958Z,99800.94
2017-12-04T21:06:36.942Z,99809.09
2017-12-04T21:09:03.340Z,99814.39
2017-12-04T21:11:29.774Z,99807.03
2017-12-04T21:13:56.210Z,99813.39
2017-12-04T21:16:22.644Z,99809.41
2017-12-04T21:18:49.078Z,99811.77
2017-12-04T21:21:15.532Z,99806.56
2017-12-04T21:23:42.650Z,99796.47
2017-12-04T21:26:09.098Z,99801.47
2017-12-04T21:28:35.634Z,99800.74
2017-12-04T21:31:01.951Z,99800.27
2017-12-04T21:33:28.299Z,99801.08
2017-12-04T21:35:54.753Z,99806.27
2017-12-04T21:38:21.132Z,99815.76
2017-12-04T21:40:48.321Z,99814.94
2017-12-04T21:43:14.755Z,99825.92
2017-12-04T21:45:41.189Z,99826.84
2017-12-04T21:48:07.624Z,99819.61
2017-12-04T21:50:33.958Z,99816.36
2017-12-04T21:53:00.494Z,99811.68
2017-12-04T21:55:26.963Z,99811.04
2017-12-04T21:57:54.182Z,99813.91
2017-12-04T22:00:20.616Z,99812.38
2017-12-04T22:02:47.058Z,99789.89
2017-12-04T22:05:13.485Z,99807.00
2017-12-04T22:07:39.920Z,99815.73
2017-12-04T22:10:06.251Z,99812.48
2017-12-04T22:12:32.686Z,99811.98
2017-12-04T22:14:59.123Z,99817.47
2017-12-04T22:17:25.453Z,99814.73
2017-12-04T22:19:51.888Z,99814.01
2017-12-04T22:22:18.254Z,99808.31
2017-12-04T22:24:44.658Z,99805.67
2017-12-04T22:27:10.985Z,99805.14
2017-12-04T22:29:37.354Z,99801.39
2017-12-04T22:32:04.492Z,99800.37
2017-12-04T22:34:30.838Z,99796.81
2017-12-04T22:36:57.231Z,99798.74
2017-12-04T22:39:23.673Z,99793.97
2017-12-04T22:41:50.209Z,99797.53
2017-12-04T22:44:16.643Z,99798.42
2017-12-04T22:46:43.078Z,99790.30
2017-12-04T22:49:10.332Z,99787.65
2017-12-04T22:51:36.769Z,99784.89
2017-12-04T22:54:03.137Z,99787.86
2017-12-04T22:56:29.472Z,99783.97
2017-12-04T22:58:55.865Z,99783.88
2017-12-04T23:01:22.197Z,99760.96
2017-12-04T23:03:48.633Z,99787.44
2017-12-04T23:06:15.784Z,99786.22
2017-12-04T23:08:42.218Z,99793.44
2017-12-04T23:11:08.653Z,99788.13
2017-12-04T23:13:35.089Z,99790.16
2017-12-04T23:16:01.427Z,99786.70
2017-12-04T23:18:27.853Z,99788.64
2017-12-04T23:20:54.289Z,99792.69
2017-12-04T23:23:21.527Z,99753.48
2017-12-04T23:25:47.874Z,99789.05
2017-12-04T23:28:14.308Z,99778.25
2017-12-04T23:30:40.799Z,99773.17
2017-12-04T23:33:07.179Z,99778.46
2017-12-04T23:35:33.612Z,99781.70
2017-12-04T23:37:59.981Z,99777.03
2017-12-04T23:40:27.290Z,99777.42
2017-12-04T23:42:53.735Z,99785.45
2017-12-04T23:45:20.107Z,99789.42
2017-12-04T23:47:46.605Z,99792.48
2017-12-04T23:50:13.041Z,99790.52
2017-12-04T23:52:39.476Z,99787.98
2017-12-04T23:55:05.805Z,99784.13
2017-12-04T23:57:33.061Z,99787.58
2017-12-04T23:59:59.495Z,99786.56
